sensor_id;sensor_type;location;lat;lon;timestamp;pressure;altitude;pressure_sealevel;temperature;humidity
25498;BME280;13406;53.380;7.226;2022-10-18T00:02:13;102588.72;;;12.78;100.00
25498;BME280;13406;53.380;7.226;2022-10-18T00:04:38;102665.09;;;13.26;100.00
25498;BME280;13406;53.380;7.226;2022-10-18T00:07:04;102672.13;;;13.44;100.00
25498;BME280;13406;53.380;7.226;2022-10-18T00:09:30;102584.00;;;12.72;100.00
25498;BME280;13406;53.380;7.226;2022-10-18T00:11:55;102681.59;;;13.31;100.00
25498;BME280;13406;53.380;7.226;2022-10-18T00:14:21;102656.81;;;13.36;100.00
25498;BME280;13406;53.380;7.226;2022-10-18T00:16:46;102590.34;;;13.04;100.00
25498;BME280;13406;53.380;7.226;2022-10-18T00:19:12;102624.13;;;13.39;100.00
25498;BME280;13406;53.380;7.226;2022-10-18T00:21:37;102664.69;;;13.54;100.00
25498;BME280;13406;53.380;7.226;2022-10-18T00:24:03;102567.00;;;12.88;100.00
25498;BME280;13406;53.380;7.226;2022-10-18T00:26:29;102583.31;;;12.95;100.00
25498;BME280;13406;53.380;7.226;2022-10-18T00:29:03;102646.19;;;13.43;100.00
25498;BME280;13406;53.380;7.226;2022-10-18T00:31:34;102556.75;;;12.75;100.00
25498;BME280;13406;53.380;7.226;2022-10-18T00:34:05;102620.47;;;13.07;100.00
25498;BME280;13406;53.380;7.226;2022-10-18T00:36:32;102667.75;;;13.43;100.00
25498;BME280;13406;53.380;7.226;2022-10-18T00:38:59;102539.63;;;12.52;100.00
25498;BME280;13406;53.380;7.226;2022-10-18T00:41:27;102663.41;;;13.09;100.00
25498;BME280;13406;53.380;7.226;2022-10-18T00:46:23;102693.06;;;13.25;100.00
25498;BME280;13406;53.380;7.226;2022-10-18T00:48:49;102556.09;;;12.40;100.00
25498;BME280;13406;53.380;7.226;2022-10-18T00:51:17;102627.09;;;12.72;100.00
25498;BME280;13406;53.380;7.226;2022-10-18T00:53:43;102690.38;;;13.25;100.00
25498;BME280;13406;53.380;7.226;2022-10-18T00:56:09;102566.38;;;12.37;100.00
25498;BME280;13406;53.380;7.226;2022-10-18T00:58:34;102609.44;;;12.45;100.00
25498;BME280;13406;53.380;7.226;2022-10-18T01:01:00;102682.63;;;12.65;100.00
25498;BME280;13406;53.380;7.226;2022-10-18T01:03:25;102699.25;;;12.52;100.00
25498;BME280;13406;53.380;7.226;2022-10-18T01:05:51;102635.75;;;11.92;100.00
25498;BME280;13406;53.380;7.226;2022-10-18T01:13:56;102699.75;;;12.31;100.00
25498;BME280;13406;53.380;7.226;2022-10-18T01:22:04;102690.50;;;12.42;100.00
25498;BME280;13406;53.380;7.226;2022-10-18T01:32:31;102499.78;;;11.23;100.00
25498;BME280;13406;53.380;7.226;2022-10-18T01:35:03;102599.63;;;12.03;100.00
25498;BME280;13406;53.380;7.226;2022-10-18T01:37:30;102511.94;;;11.43;100.00
25498;BME280;13406;53.380;7.226;2022-10-18T01:39:58;102529.56;;;11.38;100.00
25498;BME280;13406;53.380;7.226;2022-10-18T01:42:24;102675.19;;;12.34;100.00
25498;BME280;13406;53.380;7.226;2022-10-18T01:44:51;102543.88;;;11.63;100.00
25498;BME280;13406;53.380;7.226;2022-10-18T01:47:18;102572.16;;;11.75;100.00
25498;BME280;13406;53.380;7.226;2022-10-18T01:49:44;102578.34;;;11.67;100.00
25498;BME280;13406;53.380;7.226;2022-10-18T01:52:14;102577.00;;;11.71;100.00
25498;BME280;13406;53.380;7.226;2022-10-18T01:54:45;102588.88;;;11.87;100.00
25498;BME280;13406;53.380;7.226;2022-10-18T01:57:39;102619.81;;;11.99;100.00
25498;BME280;13406;53.380;7.226;2022-10-18T02:00:15;102660.91;;;12.34;100.00
25498;BME280;13406;53.380;7.226;2022-10-18T02:05:32;102669.13;;;12.40;100.00
25498;BME280;13406;53.380;7.226;2022-10-18T02:08:16;102483.84;;;11.29;100.00
25498;BME280;13406;53.380;7.226;2022-10-18T02:10:49;102638.66;;;12.24;100.00
25498;BME280;13406;53.380;7.226;2022-10-18T02:13:18;102493.47;;;11.40;100.00
25498;BME280;13406;53.380;7.226;2022-10-18T02:15:47;102496.00;;;11.50;100.00
25498;BME280;13406;53.380;7.226;2022-10-18T02:18:27;102566.81;;;11.83;100.00
25498;BME280;13406;53.380;7.226;2022-10-18T02:20:53;102658.72;;;12.46;100.00
25498;BME280;13406;53.380;7.226;2022-10-18T02:23:22;102651.13;;;12.41;100.00
25498;BME280;13406;53.380;7.226;2022-10-18T02:25:49;102562.41;;;11.74;100.00
25498;BME280;13406;53.380;7.226;2022-10-18T02:28:15;102517.50;;;11.50;100.00
25498;BME280;13406;53.380;7.226;2022-10-18T02:30:50;102659.03;;;12.34;100.00
25498;BME280;13406;53.380;7.226;2022-10-18T02:33:22;102590.28;;;11.73;100.00
25498;BME280;13406;53.380;7.226;2022-10-18T02:35:55;102664.41;;;12.26;100.00
25498;BME280;13406;53.380;7.226;2022-10-18T02:38:24;102442.41;;;10.90;100.00
25498;BME280;13406;53.380;7.226;2022-10-18T02:40:51;102618.84;;;12.25;100.00
25498;BME280;13406;53.380;7.226;2022-10-18T02:43:16;102528.78;;;11.62;100.00
25498;BME280;13406;53.380;7.226;2022-10-18T02:45:42;102617.66;;;12.19;100.00
25498;BME280;13406;53.380;7.226;2022-10-18T02:48:08;102650.47;;;12.39;100.00
25498;BME280;13406;53.380;7.226;2022-10-18T02:50:34;102552.00;;;11.79;100.00
25498;BME280;13406;53.380;7.226;2022-10-18T02:52:59;102661.91;;;12.41;100.00
25498;BME280;13406;53.380;7.226;2022-10-18T02:55:24;102543.91;;;11.71;100.00
25498;BME280;13406;53.380;7.226;2022-10-18T02:57:50;102528.09;;;11.60;100.00
25498;BME280;13406;53.380;7.226;2022-10-18T03:00:15;102558.72;;;11.75;100.00
25498;BME280;13406;53.380;7.226;2022-10-18T03:02:41;102561.59;;;11.82;100.00
25498;BME280;13406;53.380;7.226;2022-10-18T03:05:06;102543.59;;;11.74;100.00
25498;BME280;13406;53.380;7.226;2022-10-18T03:07:32;102544.56;;;11.65;100.00
25498;BME280;13406;53.380;7.226;2022-10-18T03:09:57;102624.72;;;12.28;100.00
25498;BME280;13406;53.380;7.226;2022-10-18T03:12:22;102516.84;;;11.64;100.00
25498;BME280;13406;53.380;7.226;2022-10-18T03:14:48;102614.44;;;12.07;100.00
25498;BME280;13406;53.380;7.226;2022-10-18T03:17:13;102664.94;;;12.30;100.00
25498;BME280;13406;53.380;7.226;2022-10-18T03:19:38;102613.47;;;12.33;100.00
25498;BME280;13406;53.380;7.226;2022-10-18T03:22:04;102628.28;;;12.53;100.00
25498;BME280;13406;53.380;7.226;2022-10-18T03:24:30;102504.28;;;11.81;100.00
25498;BME280;13406;53.380;7.226;2022-10-18T03:26:55;102628.63;;;12.50;100.00
25498;BME280;13406;53.380;7.226;2022-10-18T03:29:21;102559.81;;;12.23;100.00
25498;BME280;13406;53.380;7.226;2022-10-18T03:31:46;102534.44;;;12.01;100.00
25498;BME280;13406;53.380;7.226;2022-10-18T03:34:12;102587.41;;;12.33;100.00
25498;BME280;13406;53.380;7.226;2022-10-18T03:36:37;102592.47;;;12.44;100.00
25498;BME280;13406;53.380;7.226;2022-10-18T03:39:04;102643.78;;;12.76;100.00
25498;BME280;13406;53.380;7.226;2022-10-18T03:41:29;102636.69;;;12.75;100.00
25498;BME280;13406;53.380;7.226;2022-10-18T03:43:55;102587.56;;;12.32;100.00
25498;BME280;13406;53.380;7.226;2022-10-18T03:46:20;102601.19;;;12.55;100.00
25498;BME280;13406;53.380;7.226;2022-10-18T03:48:45;102536.13;;;12.18;100.00
25498;BME280;13406;53.380;7.226;2022-10-18T03:51:11;102617.00;;;12.58;100.00
25498;BME280;13406;53.380;7.226;2022-10-18T03:53:36;102620.53;;;12.75;100.00
25498;BME280;13406;53.380;7.226;2022-10-18T03:56:02;102559.66;;;12.25;100.00
25498;BME280;13406;53.380;7.226;2022-10-18T03:58:27;102548.22;;;12.14;100.00
25498;BME280;13406;53.380;7.226;2022-10-18T04:00:53;102610.13;;;12.39;100.00
25498;BME280;13406;53.380;7.226;2022-10-18T04:03:20;102630.47;;;12.58;100.00
25498;BME280;13406;53.380;7.226;2022-10-18T04:05:46;102545.31;;;11.91;100.00
25498;BME280;13406;53.380;7.226;2022-10-18T04:08:12;102558.66;;;12.09;100.00
25498;BME280;13406;53.380;7.226;2022-10-18T04:10:38;102594.47;;;12.34;100.00
25498;BME280;13406;53.380;7.226;2022-10-18T04:13:05;102618.69;;;12.34;100.00
25498;BME280;13406;53.380;7.226;2022-10-18T04:15:30;102620.22;;;12.45;100.00
25498;BME280;13406;53.380;7.226;2022-10-18T04:17:56;102592.94;;;12.32;100.00
25498;BME280;13406;53.380;7.226;2022-10-18T04:20:22;102601.84;;;12.32;100.00
25498;BME280;13406;53.380;7.226;2022-10-18T04:22:48;102618.00;;;12.40;100.00
25498;BME280;13406;53.380;7.226;2022-10-18T04:25:15;102535.59;;;11.90;100.00
25498;BME280;13406;53.380;7.226;2022-10-18T04:27:40;102516.19;;;11.70;100.00
25498;BME280;13406;53.380;7.226;2022-10-18T04:30:06;102519.59;;;11.89;100.00
25498;BME280;13406;53.380;7.226;2022-10-18T04:32:32;102516.41;;;11.85;100.00
25498;BME280;13406;53.380;7.226;2022-10-18T04:34:59;102559.81;;;11.98;100.00
25498;BME280;13406;53.380;7.226;2022-10-18T04:37:24;102627.94;;;12.40;100.00
25498;BME280;13406;53.380;7.226;2022-10-18T04:39:49;102514.03;;;11.82;100.00
25498;BME280;13406;53.380;7.226;2022-10-18T04:42:15;102632.47;;;12.31;100.00
25498;BME280;13406;53.380;7.226;2022-10-18T04:44:40;102536.38;;;11.66;100.00
25498;BME280;13406;53.380;7.226;2022-10-18T04:47:06;102545.25;;;11.67;100.00
25498;BME280;13406;53.380;7.226;2022-10-18T04:49:31;102624.56;;;12.21;100.00
25498;BME280;13406;53.380;7.226;2022-10-18T04:51:57;102505.56;;;11.44;100.00
25498;BME280;13406;53.380;7.226;2022-10-18T04:54:22;102551.72;;;11.90;100.00
25498;BME280;13406;53.380;7.226;2022-10-18T04:56:47;102642.03;;;12.26;100.00
25498;BME280;13406;53.380;7.226;2022-10-18T04:59:13;102540.22;;;11.64;100.00
25498;BME280;13406;53.380;7.226;2022-10-18T05:01:38;102610.91;;;12.07;100.00
25498;BME280;13406;53.380;7.226;2022-10-18T05:04:04;102466.03;;;11.20;100.00
25498;BME280;13406;53.380;7.226;2022-10-18T05:06:29;102610.59;;;12.10;100.00
25498;BME280;13406;53.380;7.226;2022-10-18T05:08:54;102567.03;;;11.98;100.00
25498;BME280;13406;53.380;7.226;2022-10-18T05:11:20;102658.69;;;12.29;100.00
25498;BME280;13406;53.380;7.226;2022-10-18T05:13:45;102519.84;;;11.53;100.00
25498;BME280;13406;53.380;7.226;2022-10-18T05:16:10;102548.13;;;11.73;100.00
25498;BME280;13406;53.380;7.226;2022-10-18T05:18:36;102591.91;;;12.00;100.00
25498;BME280;13406;53.380;7.226;2022-10-18T05:21:01;102557.72;;;11.84;100.00
25498;BME280;13406;53.380;7.226;2022-10-18T05:23:27;102551.94;;;11.63;100.00
25498;BME280;13406;53.380;7.226;2022-10-18T05:25:53;102564.69;;;11.52;100.00
25498;BME280;13406;53.380;7.226;2022-10-18T05:28:18;102479.97;;;11.24;100.00
25498;BME280;13406;53.380;7.226;2022-10-18T05:30:44;102377.44;;;10.35;100.00
25498;BME280;13406;53.380;7.226;2022-10-18T05:33:09;102380.53;;;10.23;100.00
25498;BME280;13406;53.380;7.226;2022-10-18T05:35:35;102482.88;;;10.88;100.00
25498;BME280;13406;53.380;7.226;2022-10-18T05:38:04;102298.28;;;9.97;100.00
25498;BME280;13406;53.380;7.226;2022-10-18T05:40:31;102557.72;;;11.34;100.00
25498;BME280;13406;53.380;7.226;2022-10-18T05:42:56;102314.78;;;10.10;100.00
25498;BME280;13406;53.380;7.226;2022-10-18T05:45:22;102419.97;;;10.56;100.00
25498;BME280;13406;53.380;7.226;2022-10-18T05:47:48;102424.75;;;10.71;100.00
25498;BME280;13406;53.380;7.226;2022-10-18T05:50:13;102350.72;;;10.26;100.00
25498;BME280;13406;53.380;7.226;2022-10-18T05:53:06;102706.69;;;11.99;100.00
25498;BME280;13406;53.380;7.226;2022-10-18T05:55:33;102354.19;;;10.18;100.00
25498;BME280;13406;53.380;7.226;2022-10-18T05:57:59;102446.63;;;10.58;100.00
25498;BME280;13406;53.380;7.226;2022-10-18T06:00:24;102583.56;;;11.77;100.00
25498;BME280;13406;53.380;7.226;2022-10-18T06:02:49;102389.22;;;10.43;100.00
25498;BME280;13406;53.380;7.226;2022-10-18T06:05:15;102469.72;;;10.77;100.00
25498;BME280;13406;53.380;7.226;2022-10-18T06:07:40;102349.09;;;10.07;100.00
25498;BME280;13406;53.380;7.226;2022-10-18T06:10:06;102435.03;;;10.49;100.00
25498;BME280;13406;53.380;7.226;2022-10-18T06:12:32;102410.47;;;10.36;100.00
25498;BME280;13406;53.380;7.226;2022-10-18T06:14:57;102364.31;;;9.98;100.00
25498;BME280;13406;53.380;7.226;2022-10-18T06:17:23;102425.28;;;10.48;100.00
25498;BME280;13406;53.380;7.226;2022-10-18T06:19:48;102706.44;;;12.19;100.00
25498;BME280;13406;53.380;7.226;2022-10-18T06:22:14;102709.47;;;12.16;100.00
25498;BME280;13406;53.380;7.226;2022-10-18T06:24:39;102369.28;;;10.19;100.00
25498;BME280;13406;53.380;7.226;2022-10-18T06:27:04;102360.28;;;10.02;100.00
25498;BME280;13406;53.380;7.226;2022-10-18T06:29:37;102477.16;;;10.57;100.00
25498;BME280;13406;53.380;7.226;2022-10-18T06:32:04;102405.03;;;10.02;100.00
25498;BME280;13406;53.380;7.226;2022-10-18T06:34:30;102494.03;;;10.49;100.00
25498;BME280;13406;53.380;7.226;2022-10-18T06:36:55;102458.44;;;10.21;100.00
25498;BME280;13406;53.380;7.226;2022-10-18T06:39:21;102709.59;;;11.72;100.00
25498;BME280;13406;53.380;7.226;2022-10-18T06:41:46;102563.94;;;10.92;100.00
25498;BME280;13406;53.380;7.226;2022-10-18T06:44:12;102485.66;;;10.08;100.00
25498;BME280;13406;53.380;7.226;2022-10-18T06:46:39;102343.13;;;9.07;100.00
25498;BME280;13406;53.380;7.226;2022-10-18T06:49:05;102638.06;;;10.67;100.00
25498;BME280;13406;53.380;7.226;2022-10-18T06:51:30;102531.41;;;10.07;100.00
25498;BME280;13406;53.380;7.226;2022-10-18T06:53:56;102637.44;;;10.99;100.00
25498;BME280;13406;53.380;7.226;2022-10-18T06:56:21;102367.69;;;9.38;100.00
25498;BME280;13406;53.380;7.226;2022-10-18T06:58:47;102625.84;;;10.72;100.00
25498;BME280;13406;53.380;7.226;2022-10-18T07:01:14;102587.31;;;10.55;100.00
25498;BME280;13406;53.380;7.226;2022-10-18T07:03:40;102577.16;;;10.67;100.00
25498;BME280;13406;53.380;7.226;2022-10-18T07:06:08;102419.34;;;9.66;100.00
25498;BME280;13406;53.380;7.226;2022-10-18T07:08:34;102555.38;;;10.26;100.00
25498;BME280;13406;53.380;7.226;2022-10-18T07:11:00;102627.81;;;10.62;100.00
25498;BME280;13406;53.380;7.226;2022-10-18T07:13:27;102394.50;;;9.28;100.00
25498;BME280;13406;53.380;7.226;2022-10-18T07:16:08;102728.47;;;11.54;100.00
25498;BME280;13406;53.380;7.226;2022-10-18T07:18:35;102573.88;;;10.47;100.00
25498;BME280;13406;53.380;7.226;2022-10-18T07:21:03;102504.88;;;10.39;100.00
25498;BME280;13406;53.380;7.226;2022-10-18T07:23:34;102791.72;;;11.66;100.00
25498;BME280;13406;53.380;7.226;2022-10-18T07:26:01;102773.47;;;11.78;100.00
25498;BME280;13406;53.380;7.226;2022-10-18T07:28:28;102596.03;;;10.75;100.00
25498;BME280;13406;53.380;7.226;2022-10-18T07:30:54;102584.75;;;10.72;100.00
25498;BME280;13406;53.380;7.226;2022-10-18T07:33:19;102673.94;;;11.36;100.00
25498;BME280;13406;53.380;7.226;2022-10-18T07:35:45;102436.78;;;9.70;100.00
25498;BME280;13406;53.380;7.226;2022-10-18T07:38:11;102532.09;;;10.45;100.00
25498;BME280;13406;53.380;7.226;2022-10-18T07:40:37;102642.47;;;10.94;100.00
25498;BME280;13406;53.380;7.226;2022-10-18T07:43:02;102464.50;;;9.61;100.00
25498;BME280;13406;53.380;7.226;2022-10-18T07:45:28;102530.03;;;10.03;100.00
25498;BME280;13406;53.380;7.226;2022-10-18T07:47:57;102596.59;;;10.25;100.00
25498;BME280;13406;53.380;7.226;2022-10-18T07:50:23;102477.34;;;9.76;100.00
25498;BME280;13406;53.380;7.226;2022-10-18T07:52:48;102504.91;;;9.86;100.00
25498;BME280;13406;53.380;7.226;2022-10-18T07:55:14;102406.75;;;9.31;100.00
25498;BME280;13406;53.380;7.226;2022-10-18T07:57:39;102506.13;;;9.91;100.00
25498;BME280;13406;53.380;7.226;2022-10-18T08:00:05;102612.78;;;10.51;100.00
25498;BME280;13406;53.380;7.226;2022-10-18T08:02:33;102771.75;;;11.77;100.00
25498;BME280;13406;53.380;7.226;2022-10-18T08:04:58;102821.63;;;11.71;100.00
25498;BME280;13406;53.380;7.226;2022-10-18T08:07:24;102674.84;;;11.18;100.00
25498;BME280;13406;53.380;7.226;2022-10-18T08:09:49;102618.13;;;10.95;100.00
25498;BME280;13406;53.380;7.226;2022-10-18T08:12:14;102615.53;;;10.59;100.00
25498;BME280;13406;53.380;7.226;2022-10-18T08:14:40;102791.22;;;11.97;100.00
25498;BME280;13406;53.380;7.226;2022-10-18T08:17:06;102569.78;;;10.43;100.00
25498;BME280;13406;53.380;7.226;2022-10-18T08:19:31;102574.63;;;10.39;100.00
25498;BME280;13406;53.380;7.226;2022-10-18T08:21:57;102547.50;;;10.43;100.00
25498;BME280;13406;53.380;7.226;2022-10-18T08:24:23;102502.00;;;10.59;100.00
25498;BME280;13406;53.380;7.226;2022-10-18T08:26:48;102564.63;;;10.68;100.00
25498;BME280;13406;53.380;7.226;2022-10-18T08:29:14;102580.28;;;10.80;100.00
25498;BME280;13406;53.380;7.226;2022-10-18T08:31:40;102606.59;;;11.29;100.00
25498;BME280;13406;53.380;7.226;2022-10-18T08:34:05;102576.91;;;11.04;100.00
25498;BME280;13406;53.380;7.226;2022-10-18T08:36:31;102538.88;;;10.83;100.00
25498;BME280;13406;53.380;7.226;2022-10-18T08:38:56;102565.31;;;11.04;100.00
25498;BME280;13406;53.380;7.226;2022-10-18T08:46:36;102517.50;;;10.99;100.00
25498;BME280;13406;53.380;7.226;2022-10-18T08:49:03;102531.53;;;10.93;100.00
25498;BME280;13406;53.380;7.226;2022-10-18T08:51:38;102710.81;;;12.28;100.00
25498;BME280;13406;53.380;7.226;2022-10-18T08:57:01;102785.53;;;12.42;100.00
25498;BME280;13406;53.380;7.226;2022-10-18T08:59:33;102545.25;;;11.16;100.00
25498;BME280;13406;53.380;7.226;2022-10-18T09:05:00;102582.13;;;11.48;100.00
25498;BME280;13406;53.380;7.226;2022-10-18T09:07:58;102548.50;;;11.36;100.00
25498;BME280;13406;53.380;7.226;2022-10-18T09:17:09;102827.97;;;13.48;100.00
25498;BME280;13406;53.380;7.226;2022-10-18T09:19:51;102747.25;;;12.81;100.00
25498;BME280;13406;53.380;7.226;2022-10-18T09:22:28;102548.34;;;11.88;100.00
25498;BME280;13406;53.380;7.226;2022-10-18T09:27:54;102843.41;;;13.79;100.00
25498;BME280;13406;53.380;7.226;2022-10-18T09:33:25;102849.34;;;13.66;100.00
25498;BME280;13406;53.380;7.226;2022-10-18T09:36:07;102568.38;;;12.02;100.00
25498;BME280;13406;53.380;7.226;2022-10-18T09:38:44;102588.41;;;12.16;100.00
25498;BME280;13406;53.380;7.226;2022-10-18T09:41:24;102761.28;;;13.34;100.00
25498;BME280;13406;53.380;7.226;2022-10-18T09:46:55;102571.25;;;12.50;100.00
25498;BME280;13406;53.380;7.226;2022-10-18T09:49:29;102490.03;;;11.89;100.00
25498;BME280;13406;53.380;7.226;2022-10-18T09:51:59;102580.66;;;12.70;100.00
25498;BME280;13406;53.380;7.226;2022-10-18T09:54:33;102832.88;;;14.17;100.00
25498;BME280;13406;53.380;7.226;2022-10-18T09:57:09;102838.47;;;14.07;100.00
25498;BME280;13406;53.380;7.226;2022-10-18T10:02:00;102539.47;;;12.61;100.00
25498;BME280;13406;53.380;7.226;2022-10-18T10:04:26;102745.34;;;13.72;100.00
25498;BME280;13406;53.380;7.226;2022-10-18T10:06:53;102869.44;;;14.36;100.00
25498;BME280;13406;53.380;7.226;2022-10-18T10:09:29;102520.38;;;12.87;100.00
25498;BME280;13406;53.380;7.226;2022-10-18T10:11:55;102683.50;;;13.62;100.00
25498;BME280;13406;53.380;7.226;2022-10-18T10:14:27;102666.88;;;13.90;100.00
25498;BME280;13406;53.380;7.226;2022-10-18T10:21:58;102518.41;;;13.29;100.00
25498;BME280;13406;53.380;7.226;2022-10-18T10:24:47;102543.81;;;13.18;100.00
25498;BME280;13406;53.380;7.226;2022-10-18T10:32:12;102529.91;;;12.98;100.00
25498;BME280;13406;53.380;7.226;2022-10-18T10:34:38;102521.44;;;13.26;100.00
25498;BME280;13406;53.380;7.226;2022-10-18T10:37:30;102480.31;;;13.24;100.00
25498;BME280;13406;53.380;7.226;2022-10-18T10:40:16;102769.72;;;15.11;100.00
25498;BME280;13406;53.380;7.226;2022-10-18T10:45:21;102622.16;;;14.50;100.00
25498;BME280;13406;53.380;7.226;2022-10-18T10:47:48;102769.03;;;15.32;100.00
25498;BME280;13406;53.380;7.226;2022-10-18T10:50:23;102773.28;;;15.27;100.00
25498;BME280;13406;53.380;7.226;2022-10-18T10:52:49;102740.63;;;15.51;100.00
25498;BME280;13406;53.380;7.226;2022-10-18T10:55:28;102767.69;;;15.66;100.00
25498;BME280;13406;53.380;7.226;2022-10-18T10:57:56;102707.09;;;15.08;100.00
25498;BME280;13406;53.380;7.226;2022-10-18T11:03:14;102748.34;;;15.40;100.00
25498;BME280;13406;53.380;7.226;2022-10-18T11:05:51;102738.84;;;15.58;100.00
25498;BME280;13406;53.380;7.226;2022-10-18T11:08:22;102733.94;;;15.92;100.00
25498;BME280;13406;53.380;7.226;2022-10-18T11:10:57;102751.63;;;16.24;100.00
25498;BME280;13406;53.380;7.226;2022-10-18T11:13:51;102741.75;;;16.01;100.00
25498;BME280;13406;53.380;7.226;2022-10-18T11:16:31;102740.94;;;15.86;100.00
25498;BME280;13406;53.380;7.226;2022-10-18T11:18:58;102739.28;;;15.47;100.00
25498;BME280;13406;53.380;7.226;2022-10-18T11:21:28;102749.66;;;15.58;100.00
25498;BME280;13406;53.380;7.226;2022-10-18T11:23:55;102685.41;;;15.46;100.00
25498;BME280;13406;53.380;7.226;2022-10-18T11:26:51;102729.84;;;15.81;100.00
25498;BME280;13406;53.380;7.226;2022-10-18T11:29:40;102711.50;;;16.13;100.00
25498;BME280;13406;53.380;7.226;2022-10-18T11:40:47;102689.25;;;15.51;100.00
25498;BME280;13406;53.380;7.226;2022-10-18T11:43:26;102732.59;;;16.02;100.00
25498;BME280;13406;53.380;7.226;2022-10-18T11:46:53;102668.38;;;16.11;100.00
25498;BME280;13406;53.380;7.226;2022-10-18T11:54:55;102738.19;;;17.45;100.00
25498;BME280;13406;53.380;7.226;2022-10-18T11:57:42;102671.41;;;16.81;100.00
25498;BME280;13406;53.380;7.226;2022-10-18T12:00:34;102730.53;;;16.77;100.00
25498;BME280;13406;53.380;7.226;2022-10-18T12:06:01;102671.00;;;17.12;100.00
25498;BME280;13406;53.380;7.226;2022-10-18T12:09:01;102668.91;;;18.65;100.00
25498;BME280;13406;53.380;7.226;2022-10-18T12:11:32;102714.25;;;17.27;100.00
25498;BME280;13406;53.380;7.226;2022-10-18T12:14:24;102719.50;;;18.72;100.00
25498;BME280;13406;53.380;7.226;2022-10-18T12:16:51;102717.16;;;19.62;100.00
25498;BME280;13406;53.380;7.226;2022-10-18T12:19:25;102705.13;;;20.98;100.00
25498;BME280;13406;53.380;7.226;2022-10-18T12:21:53;102688.25;;;20.83;100.00
25498;BME280;13406;53.380;7.226;2022-10-18T12:24:24;102703.94;;;22.53;100.00
25498;BME280;13406;53.380;7.226;2022-10-18T12:26:54;102697.06;;;16.85;100.00
25498;BME280;13406;53.380;7.226;2022-10-18T12:32:13;102694.31;;;22.51;100.00
25498;BME280;13406;53.380;7.226;2022-10-18T12:34:46;102740.19;;;26.70;100.00
25498;BME280;13406;53.380;7.226;2022-10-18T12:39:52;102728.75;;;28.67;100.00
25498;BME280;13406;53.380;7.226;2022-10-18T12:42:23;102735.09;;;26.08;100.00
25498;BME280;13406;53.380;7.226;2022-10-18T12:45:03;102715.50;;;29.85;84.04
25498;BME280;13406;53.380;7.226;2022-10-18T12:47:30;102667.56;;;30.74;69.29
25498;BME280;13406;53.380;7.226;2022-10-18T12:50:01;102601.72;;;28.31;75.44
25498;BME280;13406;53.380;7.226;2022-10-18T12:52:28;102737.25;;;24.15;100.00
25498;BME280;13406;53.380;7.226;2022-10-18T13:19:17;102734.88;;;25.87;76.75
25498;BME280;13406;53.380;7.226;2022-10-18T13:30:04;102721.56;;;28.81;85.90
25498;BME280;13406;53.380;7.226;2022-10-18T13:35:45;102763.66;;;18.88;100.00
25498;BME280;13406;53.380;7.226;2022-10-18T13:41:17;102765.78;;;18.24;100.00
25498;BME280;13406;53.380;7.226;2022-10-18T13:47:07;102734.56;;;25.28;100.00
25498;BME280;13406;53.380;7.226;2022-10-18T14:08:10;102743.44;;;22.99;100.00
25498;BME280;13406;53.380;7.226;2022-10-18T14:13:17;102760.13;;;19.47;100.00
25498;BME280;13406;53.380;7.226;2022-10-18T14:15:50;102778.16;;;17.86;100.00
25498;BME280;13406;53.380;7.226;2022-10-18T14:18:46;102776.03;;;16.82;100.00
25498;BME280;13406;53.380;7.226;2022-10-18T14:21:20;102679.25;;;15.67;100.00
25498;BME280;13406;53.380;7.226;2022-10-18T14:23:49;102791.50;;;16.00;100.00
25498;BME280;13406;53.380;7.226;2022-10-18T14:26:17;102789.91;;;16.21;100.00
25498;BME280;13406;53.380;7.226;2022-10-18T14:28:44;102802.34;;;15.86;100.00
25498;BME280;13406;53.380;7.226;2022-10-18T14:31:14;102781.06;;;15.97;100.00
25498;BME280;13406;53.380;7.226;2022-10-18T14:33:42;102787.34;;;17.63;100.00
25498;BME280;13406;53.380;7.226;2022-10-18T14:38:59;102773.94;;;23.27;100.00
25498;BME280;13406;53.380;7.226;2022-10-18T14:47:08;102795.41;;;16.64;100.00
25498;BME280;13406;53.380;7.226;2022-10-18T14:49:29;102773.94;;;16.11;100.00
25498;BME280;13406;53.380;7.226;2022-10-18T14:51:57;102781.88;;;16.13;100.00
25498;BME280;13406;53.380;7.226;2022-10-18T14:54:29;102738.16;;;15.42;100.00
25498;BME280;13406;53.380;7.226;2022-10-18T14:56:55;102800.47;;;15.86;100.00
25498;BME280;13406;53.380;7.226;2022-10-18T14:59:24;102811.75;;;15.75;100.00
25498;BME280;13406;53.380;7.226;2022-10-18T15:02:11;102720.09;;;15.42;100.00
25498;BME280;13406;53.380;7.226;2022-10-18T15:04:37;102803.09;;;15.79;100.00
25498;BME280;13406;53.380;7.226;2022-10-18T15:07:05;102815.41;;;15.97;100.00
25498;BME280;13406;53.380;7.226;2022-10-18T15:09:34;102803.94;;;15.42;100.00
25498;BME280;13406;53.380;7.226;2022-10-18T15:12:02;102807.72;;;15.33;100.00
25498;BME280;13406;53.380;7.226;2022-10-18T15:14:29;102811.94;;;15.50;100.00
25498;BME280;13406;53.380;7.226;2022-10-18T15:16:59;102804.88;;;15.49;100.00
25498;BME280;13406;53.380;7.226;2022-10-18T15:19:31;102792.22;;;15.27;100.00
25498;BME280;13406;53.380;7.226;2022-10-18T15:22:02;102729.22;;;14.88;100.00
25498;BME280;13406;53.380;7.226;2022-10-18T15:24:33;102792.06;;;15.05;100.00
25498;BME280;13406;53.380;7.226;2022-10-18T15:27:21;102803.97;;;14.96;100.00
25498;BME280;13406;53.380;7.226;2022-10-18T15:29:48;102755.28;;;14.58;100.00
25498;BME280;13406;53.380;7.226;2022-10-18T15:32:34;102794.25;;;14.87;100.00
25498;BME280;13406;53.380;7.226;2022-10-18T15:35:08;102795.50;;;14.76;100.00